Time;durP1;ratioP1;P1;durP2;ratioP2;P2;SDS_P1;SDS_P2;PMS_P1;PMS_P2;Temp;Humidity;BMP_temperature;BMP_pressure;BME280_temperature;BME280_humidity;BME280_pressure;Samples;Min_cycle;Max_cycle;Signal;HPM_P1;HPM_P2
2022/08/16 00:01:46;;;;;;;2.20;2.00;;;;;;;;;;5036052;28;20211;-30
2022/08/16 00:04:14;;;;;;;1.90;1.80;;;;;;;;;;5022490;28;20215;-32
2022/08/16 00:06:44;;;;;;;2.55;1.80;;;;;;;;;;5032888;28;20227;-34
2022/08/16 00:09:11;;;;;;;2.27;2.13;;;;;;;;;;5016021;28;20211;-31
2022/08/16 00:11:39;;;;;;;4.07;2.40;;;;;;;;;;5035371;28;20225;-31
2022/08/16 00:14:09;;;;;;;2.63;2.07;;;;;;;;;;5050094;28;20216;-32
2022/08/16 00:16:36;;;;;;;3.17;2.40;;;;;;;;;;5037566;28;20202;-33
2022/08/16 00:19:03;;;;;;;3.10;2.40;;;;;;;;;;5037467;28;20571;-31
2022/08/16 00:21:32;;;;;;;2.47;2.27;;;;;;;;;;5034583;28;20202;-33
2022/08/16 00:23:59;;;;;;;3.60;2.37;;;;;;;;;;5023608;28;20221;-31
2022/08/16 00:26:26;;;;;;;2.53;1.87;;;;;;;;;;5049519;28;20233;-30
2022/08/16 00:28:54;;;;;;;2.23;2.13;;;;;;;;;;5036314;28;20203;-30
2022/08/16 00:31:21;;;;;;;2.37;1.90;;;;;;;;;;5035920;28;20229;-31
2022/08/16 00:33:48;;;;;;;6.50;2.40;;;;;;;;;;5029628;28;20206;-30
2022/08/16 00:36:15;;;;;;;1.97;1.83;;;;;;;;;;5048784;28;20210;-30
2022/08/16 00:38:43;;;;;;;2.30;2.10;;;;;;;;;;5034103;28;20237;-31
2022/08/16 00:41:11;;;;;;;5.53;2.30;;;;;;;;;;5043406;28;20202;-30
2022/08/16 00:43:38;;;;;;;2.93;2.60;;;;;;;;;;5053127;28;20664;-32
2022/08/16 00:46:10;;;;;;;2.60;2.40;;;;;;;;;;5038025;28;20218;-30
2022/08/16 00:48:37;;;;;;;3.47;2.57;;;;;;;;;;5024960;28;20225;-31
2022/08/16 00:51:04;;;;;;;2.47;2.00;;;;;;;;;;5044824;28;20403;-31
2022/08/16 00:53:32;;;;;;;1.87;1.73;;;;;;;;;;5023163;28;20206;-31
2022/08/16 00:56:02;;;;;;;2.17;2.07;;;;;;;;;;5039069;28;20201;-30
2022/08/16 00:58:31;;;;;;;3.57;2.47;;;;;;;;;;5052898;28;20403;-32
2022/08/16 01:00:58;;;;;;;3.57;2.20;;;;;;;;;;5040782;28;20198;-33
2022/08/16 01:03:26;;;;;;;2.50;2.10;;;;;;;;;;5029170;28;20206;-31
2022/08/16 01:05:54;;;;;;;2.30;2.10;;;;;;;;;;5036320;28;20206;-32
2022/08/16 01:08:22;;;;;;;3.00;2.00;;;;;;;;;;5018212;28;20226;-32
2022/08/16 01:10:51;;;;;;;2.47;2.27;;;;;;;;;;5044718;28;20206;-32
2022/08/16 01:13:21;;;;;;;3.50;2.37;;;;;;;;;;5052888;28;20232;-29
2022/08/16 01:15:50;;;;;;;2.73;2.53;;;;;;;;;;5037824;28;20206;-33
2022/08/16 01:18:20;;;;;;;2.70;2.10;;;;;;;;;;5023781;28;20228;-29
2022/08/16 01:20:51;;;;;;;2.33;2.13;;;;;;;;;;5048552;28;20209;-33
2022/08/16 01:23:21;;;;;;;4.90;3.50;;;;;;;;;;5022577;28;20205;-31
2022/08/16 01:25:52;;;;;;;3.37;3.00;;;;;;;;;;5035662;28;20263;-29
2022/08/16 01:28:21;;;;;;;2.70;2.27;;;;;;;;;;5052852;28;20222;-30
2022/08/16 01:30:49;;;;;;;2.30;2.20;;;;;;;;;;5034993;28;20205;-30
2022/08/16 01:33:18;;;;;;;2.60;2.40;;;;;;;;;;5039078;28;20206;-33
2022/08/16 01:35:48;;;;;;;1.70;1.60;;;;;;;;;;5052610;28;20210;-34
2022/08/16 01:38:16;;;;;;;1.93;1.60;;;;;;;;;;5020115;28;20238;-33
2022/08/16 01:40:44;;;;;;;2.17;1.87;;;;;;;;;;5034381;28;20198;-31
2022/08/16 01:43:12;;;;;;;4.50;2.13;;;;;;;;;;5052798;28;20523;-29
2022/08/16 01:45:39;;;;;;;2.27;1.60;;;;;;;;;;5052782;28;20252;-33
2022/08/16 01:48:07;;;;;;;1.97;1.87;;;;;;;;;;5031385;28;20241;-30
2022/08/16 01:50:34;;;;;;;4.37;2.17;;;;;;;;;;5032838;28;20230;-30
2022/08/16 01:53:01;;;;;;;1.93;1.83;;;;;;;;;;5018874;28;20230;-32
2022/08/16 01:55:29;;;;;;;2.00;1.90;;;;;;;;;;5046081;28;20271;-29
2022/08/16 01:57:56;;;;;;;3.37;2.13;;;;;;;;;;5035471;28;20256;-33
2022/08/16 02:00:26;;;;;;;2.47;2.27;;;;;;;;;;5031128;28;20210;-33
2022/08/16 02:02:53;;;;;;;1.57;1.50;;;;;;;;;;5032283;28;20220;-28
2022/08/16 02:05:20;;;;;;;1.90;1.80;;;;;;;;;;5032529;28;20198;-35
2022/08/16 02:07:47;;;;;;;1.70;1.60;;;;;;;;;;5026545;28;20234;-30
2022/08/16 02:10:15;;;;;;;2.30;2.10;;;;;;;;;;5033842;28;20302;-28
2022/08/16 02:12:43;;;;;;;1.90;1.80;;;;;;;;;;5047396;28;20257;-32
2022/08/16 02:15:10;;;;;;;3.70;1.70;;;;;;;;;;5041335;28;20722;-33
2022/08/16 02:17:39;;;;;;;1.87;1.53;;;;;;;;;;5038680;28;20221;-32
2022/08/16 02:20:06;;;;;;;1.47;1.37;;;;;;;;;;5033752;28;20210;-33
2022/08/16 02:22:34;;;;;;;2.03;1.80;;;;;;;;;;5023056;28;20199;-32
2022/08/16 02:25:01;;;;;;;2.20;2.00;;;;;;;;;;5038723;28;20622;-33
2022/08/16 02:27:28;;;;;;;3.73;1.90;;;;;;;;;;5039076;28;20308;-33
2022/08/16 02:29:55;;;;;;;2.63;1.70;;;;;;;;;;5029697;28;20214;-30
2022/08/16 02:32:22;;;;;;;1.37;1.33;;;;;;;;;;5036348;28;20249;-31
2022/08/16 02:34:51;;;;;;;1.67;1.57;;;;;;;;;;5046876;28;20209;-33
2022/08/16 02:37:18;;;;;;;3.17;2.10;;;;;;;;;;5038553;28;20226;-31
2022/08/16 02:39:45;;;;;;;2.87;1.90;;;;;;;;;;5031055;28;20213;-31
2022/08/16 02:42:12;;;;;;;3.53;2.20;;;;;;;;;;5031032;28;20205;-32
2022/08/16 02:44:40;;;;;;;2.53;2.13;;;;;;;;;;5031101;28;20210;-32
2022/08/16 02:47:07;;;;;;;4.00;2.30;;;;;;;;;;5025136;28;20482;-33
2022/08/16 02:49:35;;;;;;;4.20;1.90;;;;;;;;;;5044041;28;20296;-32
2022/08/16 02:52:03;;;;;;;2.13;1.93;;;;;;;;;;5036076;28;20226;-31
2022/08/16 02:54:30;;;;;;;2.97;1.90;;;;;;;;;;5025592;28;20205;-32
2022/08/16 02:56:57;;;;;;;2.00;1.80;;;;;;;;;;5041955;28;20234;-29
2022/08/16 02:59:26;;;;;;;3.03;2.00;;;;;;;;;;5030987;28;20869;-34
2022/08/16 03:01:53;;;;;;;2.67;1.73;;;;;;;;;;5019288;28;20314;-30
2022/08/16 03:04:20;;;;;;;1.90;1.80;;;;;;;;;;5021991;28;20659;-31
2022/08/16 03:06:47;;;;;;;4.93;2.00;;;;;;;;;;5033821;28;20245;-31
2022/08/16 03:09:16;;;;;;;2.10;2.00;;;;;;;;;;5028685;28;20212;-32
2022/08/16 03:11:43;;;;;;;2.33;2.10;;;;;;;;;;5043606;28;20219;-30
2022/08/16 03:14:10;;;;;;;2.00;1.90;;;;;;;;;;5031102;28;20208;-32
2022/08/16 03:16:38;;;;;;;2.33;2.13;;;;;;;;;;5023881;28;20680;-35
2022/08/16 03:19:05;;;;;;;1.97;1.77;;;;;;;;;;5047993;28;20227;-31
2022/08/16 03:21:32;;;;;;;2.20;2.00;;;;;;;;;;5041371;28;20268;-33
2022/08/16 03:23:59;;;;;;;4.20;2.20;;;;;;;;;;5026637;28;20215;-30
2022/08/16 03:26:28;;;;;;;3.57;2.00;;;;;;;;;;5045833;28;20209;-30
2022/08/16 03:28:55;;;;;;;1.60;1.50;;;;;;;;;;5030270;28;20210;-32
2022/08/16 03:31:24;;;;;;;1.57;1.50;;;;;;;;;;5023478;28;20203;-32
2022/08/16 03:33:51;;;;;;;1.77;1.67;;;;;;;;;;5038679;28;20198;-30
2022/08/16 03:36:18;;;;;;;1.90;1.70;;;;;;;;;;5037790;28;20219;-32
2022/08/16 03:38:46;;;;;;;1.83;1.73;;;;;;;;;;5031171;28;20212;-34
2022/08/16 03:41:13;;;;;;;3.43;1.90;;;;;;;;;;5036122;28;20206;-30
2022/08/16 03:43:42;;;;;;;1.80;1.70;;;;;;;;;;5053707;28;20213;-32
2022/08/16 03:46:09;;;;;;;2.13;1.93;;;;;;;;;;5047875;28;20209;-30
2022/08/16 03:48:38;;;;;;;1.80;1.70;;;;;;;;;;5028550;28;20252;-33
2022/08/16 03:51:07;;;;;;;1.47;1.37;;;;;;;;;;5050789;28;20206;-30
2022/08/16 03:53:35;;;;;;;2.07;1.63;;;;;;;;;;5025297;28;20228;-33
2022/08/16 03:56:02;;;;;;;2.17;2.00;;;;;;;;;;5047053;28;20194;-32
2022/08/16 03:58:29;;;;;;;1.83;1.73;;;;;;;;;;5049716;28;20230;-33
2022/08/16 04:00:58;;;;;;;2.20;2.10;;;;;;;;;;5030971;28;20209;-30
2022/08/16 04:03:25;;;;;;;2.63;1.80;;;;;;;;;;5037444;28;20203;-28
2022/08/16 04:05:52;;;;;;;2.13;2.03;;;;;;;;;;5029945;28;20269;-29
2022/08/16 04:08:20;;;;;;;2.23;2.03;;;;;;;;;;5021695;28;20589;-31
2022/08/16 04:10:47;;;;;;;4.10;1.93;;;;;;;;;;5037768;28;20210;-33
2022/08/16 04:13:15;;;;;;;4.80;2.20;;;;;;;;;;5029607;28;20224;-32
2022/08/16 04:15:42;;;;;;;3.23;1.80;;;;;;;;;;5020434;28;20217;-34
2022/08/16 04:18:10;;;;;;;1.40;1.40;;;;;;;;;;5032633;28;20231;-29
2022/08/16 04:20:38;;;;;;;2.37;1.90;;;;;;;;;;5029519;28;20216;-32
2022/08/16 04:23:06;;;;;;;2.27;2.07;;;;;;;;;;5023125;28;20239;-32
2022/08/16 04:28:02;;;;;;;3.53;2.13;;;;;;;;;;5039252;28;20235;-39
2022/08/16 04:30:30;;;;;;;2.97;2.20;;;;;;;;;;5053073;28;20213;-42
2022/08/16 04:32:57;;;;;;;2.40;2.20;;;;;;;;;;5038372;28;20233;-43
2022/08/16 04:35:26;;;;;;;3.07;2.40;;;;;;;;;;5029849;28;20212;-43
2022/08/16 04:37:53;;;;;;;2.20;2.07;;;;;;;;;;5027796;28;20276;-40
2022/08/16 04:40:21;;;;;;;2.10;1.53;;;;;;;;;;5024003;28;20213;-44
2022/08/16 04:42:49;;;;;;;3.17;2.10;;;;;;;;;;5046700;28;20201;-42
2022/08/16 04:45:16;;;;;;;2.13;2.03;;;;;;;;;;5045216;28;20238;-41
2022/08/16 04:47:43;;;;;;;1.97;1.83;;;;;;;;;;5021617;28;20254;-39
2022/08/16 04:50:13;;;;;;;1.90;1.70;;;;;;;;;;5032438;28;20366;-43
2022/08/16 04:52:42;;;;;;;2.27;1.97;;;;;;;;;;5027535;28;20223;-39
2022/08/16 04:55:10;;;;;;;2.00;1.77;;;;;;;;;;5032251;28;20208;-40
2022/08/16 04:57:38;;;;;;;2.40;2.20;;;;;;;;;;5045281;28;20709;-42
2022/08/16 05:00:08;;;;;;;2.37;2.17;;;;;;;;;;5051945;28;20205;-41
2022/08/16 05:02:35;;;;;;;2.67;2.30;;;;;;;;;;5027594;28;20224;-39
2022/08/16 05:05:03;;;;;;;3.33;2.23;;;;;;;;;;5048931;28;20212;-42
2022/08/16 05:07:30;;;;;;;2.57;2.43;;;;;;;;;;5031103;28;20225;-42
2022/08/16 05:09:58;;;;;;;3.23;2.33;;;;;;;;;;5032540;28;20219;-43
2022/08/16 05:12:25;;;;;;;2.37;2.20;;;;;;;;;;5044518;28;20220;-42
2022/08/16 05:14:53;;;;;;;3.90;2.67;;;;;;;;;;5055901;28;20200;-39
2022/08/16 05:17:20;;;;;;;3.87;2.60;;;;;;;;;;5027784;28;20300;-40
2022/08/16 05:19:48;;;;;;;3.00;2.77;;;;;;;;;;5043118;28;20215;-45
2022/08/16 05:22:15;;;;;;;2.80;2.60;;;;;;;;;;5027454;28;20212;-42
2022/08/16 05:24:42;;;;;;;5.43;3.07;;;;;;;;;;5033083;28;20223;-44
2022/08/16 05:27:11;;;;;;;2.93;2.57;;;;;;;;;;5046943;28;20257;-40
2022/08/16 05:29:46;;;;;;;3.33;2.67;;;;;;;;;;5054791;28;20207;-41
2022/08/16 05:32:13;;;;;;;2.63;2.43;;;;;;;;;;5038079;28;20208;-42
2022/08/16 05:34:40;;;;;;;2.90;2.70;;;;;;;;;;5046709;28;20214;-45
2022/08/16 05:37:07;;;;;;;3.87;2.77;;;;;;;;;;5031734;28;20699;-39
2022/08/16 05:39:34;;;;;;;3.53;2.37;;;;;;;;;;5055849;28;20204;-41
2022/08/16 05:42:02;;;;;;;3.10;2.80;;;;;;;;;;5047295;28;20207;-41
2022/08/16 05:44:30;;;;;;;2.27;2.10;;;;;;;;;;5042036;28;20205;-40
2022/08/16 05:46:58;;;;;;;2.97;2.67;;;;;;;;;;5039748;28;20237;-40
2022/08/16 05:49:26;;;;;;;3.10;2.80;;;;;;;;;;5034810;28;20204;-43
2022/08/16 05:51:54;;;;;;;2.50;2.30;;;;;;;;;;5028820;28;20209;-37
2022/08/16 05:54:22;;;;;;;3.57;2.83;;;;;;;;;;5033300;28;20225;-43
2022/08/16 05:56:49;;;;;;;3.33;3.03;;;;;;;;;;5046206;28;20240;-42
2022/08/16 05:59:17;;;;;;;4.27;2.70;;;;;;;;;;5047169;28;20297;-40
2022/08/16 06:01:49;;;;;;;2.67;2.47;;;;;;;;;;5030403;28;20215;-39
2022/08/16 06:04:17;;;;;;;2.97;2.53;;;;;;;;;;5045807;28;20200;-42
2022/08/16 06:06:45;;;;;;;4.77;3.27;;;;;;;;;;5044384;28;20230;-39
2022/08/16 06:09:13;;;;;;;3.87;3.30;;;;;;;;;;5029413;28;20533;-41
2022/08/16 06:11:40;;;;;;;2.83;2.63;;;;;;;;;;5042320;28;20213;-41
2022/08/16 06:14:08;;;;;;;3.23;2.97;;;;;;;;;;5034516;28;20236;-44
2022/08/16 06:16:35;;;;;;;2.97;2.73;;;;;;;;;;5025139;28;20201;-42
2022/08/16 06:19:04;;;;;;;3.27;3.00;;;;;;;;;;5031071;28;20210;-41
2022/08/16 06:21:31;;;;;;;3.60;3.30;;;;;;;;;;5029175;28;20210;-44
2022/08/16 06:23:58;;;;;;;3.30;2.97;;;;;;;;;;5020138;28;20211;-44
2022/08/16 06:26:25;;;;;;;3.53;2.67;;;;;;;;;;5042079;28;20209;-41
2022/08/16 06:28:52;;;;;;;9.97;3.87;;;;;;;;;;5030979;28;20210;-44
2022/08/16 06:31:19;;;;;;;3.23;2.93;;;;;;;;;;5039291;28;20205;-41
2022/08/16 06:33:46;;;;;;;5.23;3.20;;;;;;;;;;5045338;28;20231;-44
2022/08/16 06:36:15;;;;;;;9.47;3.90;;;;;;;;;;5050780;28;20214;-39
2022/08/16 06:38:43;;;;;;;3.90;3.30;;;;;;;;;;5024321;28;20237;-36
2022/08/16 06:41:10;;;;;;;4.00;3.60;;;;;;;;;;5041705;28;20214;-43
2022/08/16 06:43:37;;;;;;;5.40;3.53;;;;;;;;;;5032816;28;20284;-42
2022/08/16 06:46:08;;;;;;;6.03;4.00;;;;;;;;;;5029974;28;20213;-43
2022/08/16 06:48:35;;;;;;;4.13;3.67;;;;;;;;;;5035027;28;20264;-43
2022/08/16 06:51:03;;;;;;;4.10;3.70;;;;;;;;;;5042454;28;20200;-43
2022/08/16 06:53:33;;;;;;;5.17;4.10;;;;;;;;;;5025456;28;20438;-40
2022/08/16 06:56:02;;;;;;;5.90;4.07;;;;;;;;;;5047644;28;20236;-39
2022/08/16 06:58:30;;;;;;;4.87;4.03;;;;;;;;;;5053108;28;20237;-38
2022/08/16 07:00:57;;;;;;;4.53;3.93;;;;;;;;;;5031062;28;20206;-44
2022/08/16 07:03:24;;;;;;;8.00;4.05;;;;;;;;;;5048689;28;20200;-37
2022/08/16 07:05:51;;;;;;;4.68;3.75;;;;;;;;;;5051365;28;20304;-42
2022/08/16 07:08:18;;;;;;;4.88;3.75;;;;;;;;;;5020322;28;20280;-42
2022/08/16 07:10:47;;;;;;;5.28;4.00;;;;;;;;;;5044029;28;20212;-41
2022/08/16 07:13:14;;;;;;;3.47;3.17;;;;;;;;;;5033816;28;20225;-44
2022/08/16 07:15:41;;;;;;;4.18;3.80;;;;;;;;;;5028448;28;20654;-42
2022/08/16 07:18:09;;;;;;;3.63;3.25;;;;;;;;;;5026072;28;20235;-42
2022/08/16 07:20:37;;;;;;;4.10;3.75;;;;;;;;;;5039562;28;20211;-39
2022/08/16 07:23:05;;;;;;;3.70;3.30;;;;;;;;;;5027712;28;20206;-40
2022/08/16 07:25:33;;;;;;;4.90;4.43;;;;;;;;;;5047310;28;20257;-41
2022/08/16 07:28:02;;;;;;;4.18;3.83;;;;;;;;;;5035700;28;20229;-43
2022/08/16 07:30:29;;;;;;;3.70;3.35;;;;;;;;;;5026902;28;20209;-43
2022/08/16 07:32:57;;;;;;;4.20;3.38;;;;;;;;;;5033462;28;20212;-42
2022/08/16 07:35:24;;;;;;;3.83;3.53;;;;;;;;;;5039442;28;20205;-41
2022/08/16 07:37:51;;;;;;;7.68;3.65;;;;;;;;;;5024399;28;20222;-44
2022/08/16 07:40:19;;;;;;;3.40;3.00;;;;;;;;;;5034723;28;20267;-43
2022/08/16 07:42:46;;;;;;;3.15;2.90;;;;;;;;;;5032608;28;20215;-41
2022/08/16 07:45:15;;;;;;;3.65;3.35;;;;;;;;;;5028958;28;20567;-40
2022/08/16 07:47:43;;;;;;;3.30;3.00;;;;;;;;;;5015084;28;20238;-44
2022/08/16 07:50:10;;;;;;;3.80;2.90;;;;;;;;;;5033354;28;20206;-41
2022/08/16 07:52:38;;;;;;;3.90;3.50;;;;;;;;;;5030464;28;20211;-43
2022/08/16 07:55:05;;;;;;;3.42;2.90;;;;;;;;;;5037376;28;20226;-44
2022/08/16 08:00:31;;;;;;;4.30;3.20;;;;;;;;;;5025257;28;20203;-38
2022/08/16 08:02:59;;;;;;;3.45;3.15;;;;;;;;;;5026852;28;20215;-42
2022/08/16 08:05:27;;;;;;;4.28;3.17;;;;;;;;;;5032421;28;20206;-41
2022/08/16 08:07:54;;;;;;;4.20;3.08;;;;;;;;;;5016258;28;20231;-39
2022/08/16 08:10:21;;;;;;;8.30;3.03;;;;;;;;;;5029310;28;20203;-42
2022/08/16 08:12:49;;;;;;;3.55;3.25;;;;;;;;;;5027358;28;20241;-40
2022/08/16 08:15:16;;;;;;;3.65;3.35;;;;;;;;;;5011489;28;20235;-43
2022/08/16 08:17:45;;;;;;;3.30;3.00;;;;;;;;;;5021577;28;20229;-43
2022/08/16 08:20:13;;;;;;;3.25;2.95;;;;;;;;;;5023870;28;20278;-42
2022/08/16 08:22:40;;;;;;;5.10;3.55;;;;;;;;;;5022973;28;20202;-44
2022/08/16 08:25:08;;;;;;;7.82;3.10;;;;;;;;;;5036160;28;20198;-43
2022/08/16 08:27:35;;;;;;;4.97;3.00;;;;;;;;;;5052290;28;20225;-44
2022/08/16 08:30:02;;;;;;;3.22;3.00;;;;;;;;;;5033800;28;20560;-43
2022/08/16 08:32:29;;;;;;;6.43;2.92;;;;;;;;;;5032246;28;20547;-42
2022/08/16 08:34:58;;;;;;;4.18;3.30;;;;;;;;;;5033875;28;20237;-42
2022/08/16 08:37:26;;;;;;;4.45;3.20;;;;;;;;;;5035021;28;20305;-44
2022/08/16 08:39:54;;;;;;;4.20;2.97;;;;;;;;;;5038322;28;20282;-44
2022/08/16 08:42:28;;;;;;;3.95;3.00;;;;;;;;;;5037059;28;20206;-43
2022/08/16 08:44:55;;;;;;;3.97;2.80;;;;;;;;;;5053291;28;20185;-44
2022/08/16 08:47:22;;;;;;;4.80;3.08;;;;;;;;;;5016335;28;20313;-43
2022/08/16 08:49:50;;;;;;;3.30;3.00;;;;;;;;;;5034244;28;20318;-44
2022/08/16 08:52:19;;;;;;;4.65;3.35;;;;;;;;;;5022107;28;20210;-43
2022/08/16 08:54:46;;;;;;;6.88;3.40;;;;;;;;;;5032251;28;20229;-44
2022/08/16 08:57:13;;;;;;;4.70;3.10;;;;;;;;;;5036117;28;20244;-43
2022/08/16 08:59:40;;;;;;;3.45;3.13;;;;;;;;;;5023887;28;20207;-42
2022/08/16 09:02:09;;;;;;;6.13;3.28;;;;;;;;;;5020376;28;20211;-45
2022/08/16 09:04:37;;;;;;;3.67;3.33;;;;;;;;;;5040241;28;20202;-46
2022/08/16 09:09:41;;;;;;;5.80;3.20;;;;;;;;;;5518345;22;20233;-35
2022/08/16 09:12:10;;;;;;;5.10;2.92;;;;;;;;;;5012446;28;20203;-35
2022/08/16 09:14:38;;;;;;;5.93;3.28;;;;;;;;;;5008805;28;20219;-35
2022/08/16 09:17:05;;;;;;;5.45;3.25;;;;;;;;;;5009264;28;20226;-36
2022/08/16 09:19:36;;;;;;;6.70;3.33;;;;;;;;;;5009800;28;20210;-33
2022/08/16 09:22:03;;;;;;;3.60;3.15;;;;;;;;;;5005232;28;20641;-35
2022/08/16 09:24:30;;;;;;;3.90;3.15;;;;;;;;;;5008088;28;20223;-35
2022/08/16 09:26:59;;;;;;;3.83;3.42;;;;;;;;;;5011824;28;20226;-32
2022/08/16 09:29:26;;;;;;;4.15;3.25;;;;;;;;;;5009334;28;20250;-36
2022/08/16 09:31:55;;;;;;;3.33;3.03;;;;;;;;;;5005323;28;20205;-33
2022/08/16 09:34:22;;;;;;;6.35;3.60;;;;;;;;;;5011639;28;20226;-35
2022/08/16 09:36:49;;;;;;;4.18;3.30;;;;;;;;;;5005910;28;20237;-34
2022/08/16 09:39:17;;;;;;;3.47;2.95;;;;;;;;;;5010838;28;20227;-36
2022/08/16 09:41:44;;;;;;;5.53;3.20;;;;;;;;;;5011555;28;20213;-34
2022/08/16 09:44:12;;;;;;;3.22;2.92;;;;;;;;;;5012646;28;20198;-31
2022/08/16 09:46:39;;;;;;;2.90;2.70;;;;;;;;;;5007570;28;20210;-34
2022/08/16 09:49:06;;;;;;;5.65;3.15;;;;;;;;;;4995507;28;20214;-33
2022/08/16 09:51:33;;;;;;;6.10;3.00;;;;;;;;;;5008778;28;20206;-30
2022/08/16 09:54:01;;;;;;;3.75;3.30;;;;;;;;;;5011184;28;20226;-37
2022/08/16 09:56:29;;;;;;;3.63;3.33;;;;;;;;;;5012709;28;20199;-32
2022/08/16 09:58:57;;;;;;;3.45;3.15;;;;;;;;;;5009974;28;20273;-32
2022/08/16 10:01:26;;;;;;;3.50;3.05;;;;;;;;;;5007283;28;20215;-33
2022/08/16 10:03:53;;;;;;;5.55;2.95;;;;;;;;;;5009202;28;20694;-31
2022/08/16 10:06:21;;;;;;;10.50;3.90;;;;;;;;;;5009055;28;20205;-33
2022/08/16 10:08:48;;;;;;;6.10;4.75;;;;;;;;;;5007449;28;20220;-32
2022/08/16 10:14:01;;;;;;;4.13;3.00;;;;;;;;;;5011183;28;20231;-34
2022/08/16 10:16:29;;;;;;;5.25;3.33;;;;;;;;;;5008574;28;20202;-37
2022/08/16 10:18:56;;;;;;;3.35;2.70;;;;;;;;;;5008129;28;20296;-33
2022/08/16 10:21:24;;;;;;;3.47;3.00;;;;;;;;;;5009009;28;20225;-36
2022/08/16 10:23:53;;;;;;;4.68;3.08;;;;;;;;;;5004632;28;20210;-36
2022/08/16 10:26:23;;;;;;;5.05;3.72;;;;;;;;;;5011218;28;20273;-33
2022/08/16 10:28:50;;;;;;;4.35;2.90;;;;;;;;;;5013799;28;20241;-34
2022/08/16 10:31:17;;;;;;;4.90;3.13;;;;;;;;;;5005862;28;20221;-33
2022/08/16 10:33:46;;;;;;;2.90;2.70;;;;;;;;;;5011013;28;20214;-33
2022/08/16 10:36:14;;;;;;;4.15;2.95;;;;;;;;;;5008582;28;20214;-35
2022/08/16 10:38:42;;;;;;;5.40;3.00;;;;;;;;;;5134719;22;20238;-31
2022/08/16 10:41:10;;;;;;;2.90;2.70;;;;;;;;;;5013823;28;20213;-32
2022/08/16 10:43:38;;;;;;;3.22;2.92;;;;;;;;;;5017422;28;20207;-31
2022/08/16 10:46:07;;;;;;;6.55;2.88;;;;;;;;;;5014088;28;20211;-32
2022/08/16 10:48:35;;;;;;;4.25;2.60;;;;;;;;;;5025527;28;20229;-31
2022/08/16 10:51:04;;;;;;;3.22;2.83;;;;;;;;;;5033459;28;20214;-32
2022/08/16 10:53:32;;;;;;;4.13;3.30;;;;;;;;;;5018807;28;20197;-31
2022/08/16 10:55:59;;;;;;;3.33;2.88;;;;;;;;;;5034456;28;20219;-31
2022/08/16 10:58:27;;;;;;;4.28;2.95;;;;;;;;;;5033160;28;20228;-31
2022/08/16 11:00:54;;;;;;;121.97;67.57;;;;;;;;;;5036748;28;20216;-30
2022/08/16 11:03:21;;;;;;;4.10;2.90;;;;;;;;;;5032688;28;20217;-33
2022/08/16 11:05:49;;;;;;;8.38;3.60;;;;;;;;;;5032917;28;20201;-30
2022/08/16 11:08:17;;;;;;;3.35;3.05;;;;;;;;;;5022555;28;20266;-33
2022/08/16 11:10:49;;;;;;;5.70;2.90;;;;;;;;;;5028099;28;20212;-32
2022/08/16 11:13:16;;;;;;;4.05;3.13;;;;;;;;;;5032646;28;20474;-31
2022/08/16 11:15:44;;;;;;;3.63;2.92;;;;;;;;;;5025140;28;20232;-30
2022/08/16 11:18:12;;;;;;;3.28;2.92;;;;;;;;;;5031047;28;20233;-30
2022/08/16 11:20:39;;;;;;;3.95;2.97;;;;;;;;;;5033046;28;20209;-33
2022/08/16 11:23:07;;;;;;;2.80;2.60;;;;;;;;;;5024053;28;20209;-30
2022/08/16 11:25:35;;;;;;;3.58;2.70;;;;;;;;;;5027107;28;20310;-30
2022/08/16 11:28:02;;;;;;;3.40;2.90;;;;;;;;;;5032902;28;20230;-33
2022/08/16 11:30:32;;;;;;;6.10;2.83;;;;;;;;;;5027086;28;20209;-33
2022/08/16 11:33:00;;;;;;;3.50;2.70;;;;;;;;;;5026057;28;20300;-31
2022/08/16 11:35:28;;;;;;;4.90;2.97;;;;;;;;;;5032447;28;20232;-33
2022/08/16 11:37:56;;;;;;;2.90;2.70;;;;;;;;;;5025059;28;20240;-32
2022/08/16 11:40:24;;;;;;;3.20;2.80;;;;;;;;;;5027268;28;20209;-33
2022/08/16 11:42:53;;;;;;;2.80;2.58;;;;;;;;;;5032838;28;20296;-33
2022/08/16 11:45:21;;;;;;;6.38;3.20;;;;;;;;;;5023721;28;20216;-33
2022/08/16 11:47:48;;;;;;;3.25;2.55;;;;;;;;;;5022092;28;20232;-33
2022/08/16 11:50:15;;;;;;;3.67;2.50;;;;;;;;;;5032487;28;20214;-32
2022/08/16 11:52:43;;;;;;;2.80;2.60;;;;;;;;;;5021796;28;20233;-32
2022/08/16 11:55:12;;;;;;;3.72;2.47;;;;;;;;;;5024372;28;20229;-31
2022/08/16 11:57:40;;;;;;;3.83;2.47;;;;;;;;;;5032438;28;20232;-31
2022/08/16 12:00:11;;;;;;;3.55;2.60;;;;;;;;;;5030521;28;20300;-29
2022/08/16 12:02:39;;;;;;;3.60;3.30;;;;;;;;;;5015560;28;20313;-32
2022/08/16 12:05:06;;;;;;;3.47;2.67;;;;;;;;;;5030172;28;20213;-29
2022/08/16 12:07:33;;;;;;;2.40;2.30;;;;;;;;;;5024668;28;20272;-32
2022/08/16 12:10:01;;;;;;;5.13;2.67;;;;;;;;;;5023993;28;20214;-32
2022/08/16 12:12:28;;;;;;;2.90;2.60;;;;;;;;;;5032092;28;20205;-30
2022/08/16 12:14:55;;;;;;;4.05;2.67;;;;;;;;;;5029659;28;20237;-33
2022/08/16 12:17:23;;;;;;;4.97;2.70;;;;;;;;;;5027024;28;20229;-31
2022/08/16 12:19:51;;;;;;;2.90;2.60;;;;;;;;;;5031384;28;20208;-30
2022/08/16 12:22:18;;;;;;;2.97;2.50;;;;;;;;;;5029021;28;20205;-32
2022/08/16 12:24:45;;;;;;;3.03;2.60;;;;;;;;;;5028292;28;20211;-30
2022/08/16 12:27:12;;;;;;;2.80;2.53;;;;;;;;;;5038674;28;20225;-30
2022/08/16 12:29:39;;;;;;;2.55;2.35;;;;;;;;;;5033584;28;20208;-33
2022/08/16 12:32:06;;;;;;;6.90;2.60;;;;;;;;;;5028889;28;20236;-30
2022/08/16 12:34:35;;;;;;;3.45;2.92;;;;;;;;;;5036288;28;20225;-29
2022/08/16 12:37:04;;;;;;;2.65;2.45;;;;;;;;;;5028535;28;20240;-30
2022/08/16 12:39:31;;;;;;;2.70;2.50;;;;;;;;;;5030680;28;20252;-31
2022/08/16 12:41:58;;;;;;;2.67;2.25;;;;;;;;;;5037143;28;20273;-31
2022/08/16 12:44:26;;;;;;;3.15;2.50;;;;;;;;;;5038632;28;20385;-30
2022/08/16 12:49:35;;;;;;;2.75;2.55;;;;;;;;;;5031466;28;20225;-31
2022/08/16 12:52:03;;;;;;;3.80;2.53;;;;;;;;;;5032747;28;20213;-33
2022/08/16 12:54:30;;;;;;;2.60;2.40;;;;;;;;;;5025221;28;20215;-33
2022/08/16 12:56:57;;;;;;;3.15;2.88;;;;;;;;;;5037534;28;20234;-31
2022/08/16 12:59:25;;;;;;;3.15;2.38;;;;;;;;;;5038629;28;20220;-31
2022/08/16 13:01:52;;;;;;;5.65;2.63;;;;;;;;;;5024593;28;20220;-31
2022/08/16 13:04:20;;;;;;;3.50;2.90;;;;;;;;;;5037704;28;20277;-32
2022/08/16 13:07:03;;;;;;;2.53;2.33;;;;;;;;;;5029172;28;20225;-32
2022/08/16 13:09:32;;;;;;;2.55;2.35;;;;;;;;;;5031159;28;20281;-33
2022/08/16 13:12:06;;;;;;;2.40;2.30;;;;;;;;;;5038072;28;20254;-34
2022/08/16 13:14:35;;;;;;;2.67;2.30;;;;;;;;;;5043253;28;20242;-34
2022/08/16 13:17:03;;;;;;;3.35;2.50;;;;;;;;;;5033863;28;20229;-32
2022/08/16 13:19:30;;;;;;;2.95;2.53;;;;;;;;;;5037767;28;20207;-32
2022/08/16 13:21:57;;;;;;;4.18;2.45;;;;;;;;;;5026841;28;20212;-35
2022/08/16 13:24:24;;;;;;;2.75;2.40;;;;;;;;;;5039868;28;20205;-33
2022/08/16 13:26:53;;;;;;;2.65;2.45;;;;;;;;;;5038032;28;20213;-30
2022/08/16 13:29:20;;;;;;;3.90;2.35;;;;;;;;;;5038250;28;20199;-31
2022/08/16 13:31:47;;;;;;;3.72;2.53;;;;;;;;;;5030003;28;20218;-31
2022/08/16 13:34:15;;;;;;;3.35;2.60;;;;;;;;;;5031845;28;20297;-32
2022/08/16 13:36:42;;;;;;;2.45;2.25;;;;;;;;;;5030946;28;20259;-32
2022/08/16 13:39:09;;;;;;;3.75;2.67;;;;;;;;;;5022924;28;20217;-30
2022/08/16 13:41:37;;;;;;;2.47;2.28;;;;;;;;;;5030537;28;20262;-31
2022/08/16 13:44:06;;;;;;;2.83;2.53;;;;;;;;;;5032966;28;20211;-31
2022/08/16 13:46:33;;;;;;;3.15;2.40;;;;;;;;;;5034064;28;20210;-30
2022/08/16 13:49:01;;;;;;;2.83;2.58;;;;;;;;;;5029671;28;20209;-32
2022/08/16 13:51:28;;;;;;;3.00;2.35;;;;;;;;;;5029934;28;20213;-31
2022/08/16 13:53:57;;;;;;;2.67;2.35;;;;;;;;;;5025701;28;20213;-33
2022/08/16 13:56:25;;;;;;;7.43;2.60;;;;;;;;;;5034337;28;20235;-30
2022/08/16 13:58:52;;;;;;;2.90;2.70;;;;;;;;;;5033980;28;20213;-33
2022/08/16 14:01:21;;;;;;;2.85;2.65;;;;;;;;;;5029100;28;20202;-32
2022/08/16 14:03:48;;;;;;;5.93;2.30;;;;;;;;;;5033317;28;20222;-33
2022/08/16 14:06:15;;;;;;;2.40;2.20;;;;;;;;;;5032202;28;20223;-32
2022/08/16 14:08:43;;;;;;;2.33;2.22;;;;;;;;;;5025180;28;20246;-31
2022/08/16 14:11:11;;;;;;;4.25;2.53;;;;;;;;;;5032302;28;20207;-30
2022/08/16 14:13:39;;;;;;;2.25;2.08;;;;;;;;;;5035918;28;20276;-35
2022/08/16 14:16:06;;;;;;;3.05;2.72;;;;;;;;;;5027570;28;20229;-31
2022/08/16 14:18:35;;;;;;;4.72;2.72;;;;;;;;;;5029648;28;20251;-31
2022/08/16 14:21:02;;;;;;;3.83;2.60;;;;;;;;;;5034525;28;20209;-31
2022/08/16 14:23:29;;;;;;;2.78;2.33;;;;;;;;;;5027619;28;20220;-30
2022/08/16 14:25:56;;;;;;;4.55;2.50;;;;;;;;;;5030807;28;20221;-32
2022/08/16 14:28:24;;;;;;;2.35;2.20;;;;;;;;;;5034306;28;20233;-32
2022/08/16 14:30:51;;;;;;;2.53;2.33;;;;;;;;;;5029237;28;20210;-31
2022/08/16 14:33:18;;;;;;;2.60;2.30;;;;;;;;;;5033232;28;20200;-31
2022/08/16 14:35:47;;;;;;;2.78;2.35;;;;;;;;;;5032095;28;20226;-32
2022/08/16 14:38:14;;;;;;;2.83;2.22;;;;;;;;;;5028159;28;20244;-32
2022/08/16 14:40:42;;;;;;;2.88;2.67;;;;;;;;;;5022919;28;20205;-35
2022/08/16 14:43:09;;;;;;;3.33;2.90;;;;;;;;;;5033276;28;20221;-32
2022/08/16 14:45:36;;;;;;;3.60;2.63;;;;;;;;;;5031432;28;20232;-33
2022/08/16 14:48:04;;;;;;;3.05;2.60;;;;;;;;;;5031038;28;20290;-31
2022/08/16 14:50:31;;;;;;;3.13;2.10;;;;;;;;;;5033665;28;20202;-32
2022/08/16 14:53:01;;;;;;;2.60;2.40;;;;;;;;;;5028872;28;20213;-33
2022/08/16 14:55:46;;;;;;;3.45;2.60;;;;;;;;;;5029205;28;20238;-30
2022/08/16 14:58:13;;;;;;;2.63;2.40;;;;;;;;;;5032286;28;20229;-33
2022/08/16 15:00:40;;;;;;;2.85;2.47;;;;;;;;;;5029260;28;20213;-31